Time;durP1;ratioP1;P1;durP2;ratioP2;P2;SDS_P1;SDS_P2;PMS_P1;PMS_P2;Temp;Humidity;BMP_temperature;BMP_pressure;BME280_temperature;BME280_humidity;BME280_pressure;Samples;Min_cycle;Max_cycle;Signal;HPM_P1;HPM_P2
2022/06/08 00:01:20;;;;;;;11.40;8.93;;;10.00;99.90;;;;;;5002009;28;20037;-70
2022/06/08 00:03:54;;;;;;;10.20;8.43;;;9.90;99.90;;;;;;5019533;28;20515;-71
2022/06/08 00:06:20;;;;;;;11.02;9.48;;;9.90;99.90;;;;;;5027226;28;20500;-70
2022/06/08 00:08:47;;;;;;;9.57;8.57;;;9.90;99.90;;;;;;5017606;28;20187;-71
2022/06/08 00:11:13;;;;;;;8.98;8.10;;;9.90;99.90;;;;;;5002775;28;20141;-71
2022/06/08 00:13:40;;;;;;;9.88;8.50;;;9.80;99.90;;;;;;4976816;28;20042;-71
2022/06/08 00:16:07;;;;;;;9.85;8.02;;;9.80;99.90;;;;;;5009376;28;20441;-71
2022/06/08 00:18:33;;;;;;;8.70;7.80;;;9.70;99.90;;;;;;4983793;28;20688;-71
2022/06/08 00:20:58;;;;;;;10.02;8.30;;;9.60;99.90;;;;;;4999613;28;20044;-71
2022/06/08 00:23:24;;;;;;;9.60;8.07;;;9.60;99.90;;;;;;4970934;28;20508;-71
2022/06/08 00:25:50;;;;;;;14.20;10.90;;;9.60;99.90;;;;;;4982586;28;20045;-71
2022/06/08 00:28:16;;;;;;;8.80;7.72;;;9.60;99.90;;;;;;4989792;28;20033;-71
2022/06/08 00:30:43;;;;;;;9.57;8.48;;;9.60;99.90;;;;;;5013645;28;20049;-71
2022/06/08 00:33:12;;;;;;;10.35;8.20;;;9.60;99.90;;;;;;5024619;28;20038;-71
2022/06/08 00:35:38;;;;;;;8.07;7.15;;;9.60;99.90;;;;;;4994220;28;20075;-71
2022/06/08 00:38:04;;;;;;;9.57;7.60;;;9.50;99.90;;;;;;5038416;28;20045;-71
2022/06/08 00:41:16;;;;;;;12.80;10.10;;;9.60;99.90;;;;;;5011097;28;20038;-72
2022/06/08 00:43:42;;;;;;;10.82;9.50;;;9.60;99.90;;;;;;5005989;28;20134;-71
2022/06/08 00:46:09;;;;;;;10.13;9.07;;;9.60;99.90;;;;;;5046286;28;20041;-71
2022/06/08 00:48:40;;;;;;;10.35;9.25;;;9.60;99.90;;;;;;5004153;28;20117;-71
2022/06/08 00:51:06;;;;;;;9.23;8.27;;;9.60;99.90;;;;;;5006965;28;20052;-71
2022/06/08 00:53:37;;;;;;;9.60;8.20;;;9.50;99.90;;;;;;4988746;28;20045;-71
2022/06/08 00:56:06;;;;;;;9.52;8.50;;;9.50;99.90;;;;;;5007796;28;20108;-71
2022/06/08 00:58:36;;;;;;;10.45;8.25;;;9.60;99.90;;;;;;5002114;28;20049;-71
2022/06/08 01:01:01;;;;;;;7.63;6.93;;;9.60;99.90;;;;;;5006234;28;20500;-71
2022/06/08 01:03:28;;;;;;;9.20;8.30;;;9.50;99.90;;;;;;5005428;28;20038;-71
2022/06/08 01:06:01;;;;;;;9.98;8.40;;;9.50;99.90;;;;;;5025769;28;20142;-71
2022/06/08 01:08:38;;;;;;;9.82;8.82;;;9.50;99.90;;;;;;5018735;28;20084;-71
2022/06/08 01:11:16;;;;;;;10.82;9.13;;;9.40;99.90;;;;;;5008080;28;20495;-71
2022/06/08 01:13:42;;;;;;;10.15;9.15;;;9.40;99.90;;;;;;5008518;28;20060;-71
2022/06/08 01:16:12;;;;;;;9.73;8.82;;;9.30;99.90;;;;;;5000482;28;20050;-71
2022/06/08 01:18:39;;;;;;;11.10;8.85;;;9.40;99.90;;;;;;5031563;28;20057;-71
2022/06/08 01:21:20;;;;;;;9.73;8.77;;;9.40;99.90;;;;;;5017034;28;20508;-71
2022/06/08 01:23:53;;;;;;;10.13;9.15;;;9.40;99.90;;;;;;5032761;28;20049;-71
2022/06/08 01:26:41;;;;;;;13.40;11.63;;;9.40;99.90;;;;;;5035804;28;20049;-71
2022/06/08 01:29:25;;;;;;;10.90;9.63;;;9.40;99.90;;;;;;4991788;28;20049;-71
2022/06/08 01:32:03;;;;;;;12.90;11.00;;;9.40;99.90;;;;;;5002630;28;20041;-71
2022/06/08 01:34:39;;;;;;;13.32;11.95;;;9.40;99.90;;;;;;5041733;28;20034;-71
2022/06/08 01:37:13;;;;;;;13.70;12.00;;;9.40;99.90;;;;;;5005151;28;20046;-71
2022/06/08 01:39:45;;;;;;;17.80;15.98;;;9.40;99.90;;;;;;5011613;28;20568;-71
2022/06/08 01:42:37;;;;;;;26.73;20.85;;;9.50;99.90;;;;;;4987814;28;20048;-71
2022/06/08 01:45:37;;;;;;;23.00;18.27;;;9.50;99.90;;;;;;4988862;28;20066;-71
2022/06/08 01:48:03;;;;;;;31.13;22.77;;;9.60;99.90;;;;;;5034939;28;20053;-71
2022/06/08 01:51:05;;;;;;;32.38;25.67;;;9.70;99.90;;;;;;5002955;28;20355;-71
2022/06/08 01:53:55;;;;;;;33.88;27.13;;;9.80;99.90;;;;;;5044689;28;20050;-72
2022/06/08 01:56:44;;;;;;;37.22;28.95;;;9.90;99.90;;;;;;4990518;28;20037;-71
2022/06/08 01:59:34;;;;;;;31.63;27.33;;;10.00;99.90;;;;;;5004086;28;20707;-71
2022/06/08 02:02:18;;;;;;;29.38;23.77;;;10.10;99.90;;;;;;5000088;28;20038;-71
2022/06/08 02:04:57;;;;;;;31.88;25.17;;;10.20;99.90;;;;;;4994203;28;20050;-71
2022/06/08 02:07:23;;;;;;;37.92;28.60;;;10.20;99.90;;;;;;5008292;28;20501;-71
2022/06/08 02:10:05;;;;;;;28.08;24.50;;;10.30;99.90;;;;;;4984560;28;20077;-71
2022/06/08 02:12:33;;;;;;;31.55;24.75;;;10.30;99.90;;;;;;5002325;28;20045;-71
2022/06/08 02:15:07;;;;;;;33.20;26.90;;;10.30;99.90;;;;;;5033978;28;20100;-71
2022/06/08 02:17:42;;;;;;;32.50;26.27;;;10.40;99.90;;;;;;5012852;28;20095;-71
2022/06/08 02:20:22;;;;;;;31.05;25.13;;;10.40;99.90;;;;;;5000993;28;20119;-71
2022/06/08 02:22:53;;;;;;;35.00;27.75;;;10.40;99.90;;;;;;5003011;28;20073;-71
2022/06/08 02:25:31;;;;;;;34.03;28.58;;;10.40;99.90;;;;;;5004002;28;20516;-71
2022/06/08 02:28:03;;;;;;;34.13;28.30;;;10.50;99.90;;;;;;5024218;28;20107;-71
2022/06/08 02:30:33;;;;;;;35.58;28.75;;;10.40;99.90;;;;;;5001134;28;20053;-71
2022/06/08 02:35:56;;;;;;;31.38;26.50;;;10.60;99.90;;;;;;5037214;28;20513;-72
2022/06/08 02:38:27;;;;;;;39.90;28.63;;;10.60;99.90;;;;;;5000936;28;20040;-71
2022/06/08 02:40:56;;;;;;;34.15;30.27;;;10.60;99.90;;;;;;4988280;28;20112;-72
2022/06/08 02:44:00;;;;;;;39.15;29.63;;;10.70;99.90;;;;;;5043525;28;20041;-71
2022/06/08 02:46:51;;;;;;;41.58;31.15;;;10.70;99.90;;;;;;5013833;28;20062;-72
2022/06/08 02:49:17;;;;;;;34.97;28.20;;;10.70;99.90;;;;;;5006429;28;20099;-71
2022/06/08 02:51:50;;;;;;;40.03;29.77;;;10.70;99.90;;;;;;5036110;28;20042;-71
2022/06/08 02:54:23;;;;;;;35.05;28.80;;;10.70;99.90;;;;;;5037124;28;20622;-71
2022/06/08 02:57:03;;;;;;;32.53;27.98;;;10.80;99.90;;;;;;5037472;28;20868;-71
2022/06/08 02:59:53;;;;;;;33.55;27.17;;;10.80;99.90;;;;;;5015644;28;20037;-71
2022/06/08 03:02:33;;;;;;;28.98;25.90;;;10.80;99.90;;;;;;5011178;28;20042;-71
2022/06/08 03:05:02;;;;;;;33.90;26.65;;;10.70;99.90;;;;;;5008739;28;20046;-71
2022/06/08 03:07:38;;;;;;;27.60;24.65;;;10.70;99.90;;;;;;5007691;28;20137;-71
2022/06/08 03:10:10;;;;;;;29.80;24.95;;;10.70;99.90;;;;;;5004659;28;20049;-71
2022/06/08 03:12:39;;;;;;;31.73;25.45;;;10.60;99.90;;;;;;5020146;28;20137;-71
2022/06/08 03:15:08;;;;;;;32.75;25.55;;;10.60;99.90;;;;;;4989301;28;20452;-71
2022/06/08 03:17:37;;;;;;;26.67;23.88;;;10.60;99.90;;;;;;4988044;28;20052;-71
2022/06/08 03:20:07;;;;;;;26.98;24.17;;;10.60;99.90;;;;;;4997838;28;20041;-71
2022/06/08 03:22:34;;;;;;;26.35;23.48;;;10.60;99.90;;;;;;5009658;28;20156;-71
2022/06/08 03:24:59;;;;;;;29.92;25.48;;;10.60;99.90;;;;;;5011478;28;20073;-71
2022/06/08 03:27:25;;;;;;;26.85;23.98;;;10.60;99.90;;;;;;5017927;28;20208;-71
2022/06/08 03:29:52;;;;;;;26.50;23.63;;;10.60;99.90;;;;;;5026460;28;20045;-71
2022/06/08 03:32:18;;;;;;;30.38;25.58;;;10.60;99.90;;;;;;5008442;28;20443;-71
2022/06/08 03:34:44;;;;;;;31.77;25.83;;;10.60;99.90;;;;;;4993399;28;20042;-71
2022/06/08 03:37:10;;;;;;;26.73;23.38;;;10.60;99.90;;;;;;4998567;28;20409;-71
2022/06/08 03:39:36;;;;;;;24.60;21.38;;;10.60;99.90;;;;;;4997030;28;20527;-71
2022/06/08 03:42:02;;;;;;;27.00;23.48;;;10.60;99.90;;;;;;5012883;28;20045;-71
2022/06/08 03:44:28;;;;;;;25.05;22.45;;;10.60;99.90;;;;;;5045475;28;20121;-71
2022/06/08 03:46:58;;;;;;;27.73;23.95;;;10.60;99.90;;;;;;5027430;28;20137;-71
2022/06/08 03:49:25;;;;;;;24.48;22.02;;;10.60;99.90;;;;;;5041748;28;20582;-70
2022/06/08 03:51:54;;;;;;;30.08;25.80;;;10.70;99.90;;;;;;5020504;28;20587;-71
2022/06/08 03:54:24;;;;;;;31.75;26.42;;;10.70;99.90;;;;;;5013443;28;20041;-71
2022/06/08 03:56:53;;;;;;;35.45;28.90;;;10.70;99.90;;;;;;5022938;28;20046;-72
2022/06/08 03:59:19;;;;;;;30.73;27.05;;;10.80;99.90;;;;;;5016546;28;20056;-71
2022/06/08 04:01:48;;;;;;;40.63;32.15;;;10.90;99.90;;;;;;5018283;28;20125;-71
2022/06/08 04:04:14;;;;;;;33.50;27.80;;;11.00;99.90;;;;;;4987065;28;20129;-71
2022/06/08 04:06:40;;;;;;;40.03;31.80;;;11.10;99.90;;;;;;4973072;28;20049;-70
2022/06/08 04:09:05;;;;;;;37.00;32.70;;;11.20;99.90;;;;;;4983423;28;20068;-71
2022/06/08 04:11:31;;;;;;;44.28;35.20;;;11.30;99.90;;;;;;4992270;28;20103;-71
2022/06/08 04:13:59;;;;;;;35.95;32.10;;;11.40;99.90;;;;;;4995525;28;20045;-71
2022/06/08 04:16:25;;;;;;;39.92;30.75;;;11.50;99.90;;;;;;5023450;28;20556;-71
2022/06/08 04:18:51;;;;;;;37.47;32.92;;;11.60;99.90;;;;;;5004192;28;20132;-72
2022/06/08 04:21:17;;;;;;;35.72;29.67;;;11.70;99.90;;;;;;4996708;28;20559;-72
2022/06/08 04:23:45;;;;;;;35.38;30.05;;;11.80;99.90;;;;;;5042763;28;20084;-71
2022/06/08 04:26:11;;;;;;;39.78;33.95;;;11.80;99.90;;;;;;5014208;28;20613;-71
2022/06/08 04:28:37;;;;;;;40.95;33.65;;;11.90;99.90;;;;;;4993985;28;20046;-71
2022/06/08 04:31:04;;;;;;;37.47;32.10;;;11.90;99.90;;;;;;4993716;28;20052;-72
2022/06/08 04:33:30;;;;;;;37.42;30.88;;;12.00;99.90;;;;;;4985678;28;20497;-71
2022/06/08 04:35:56;;;;;;;36.92;32.97;;;12.00;99.90;;;;;;5003863;28;20061;-71
2022/06/08 04:38:22;;;;;;;38.78;32.60;;;12.10;99.90;;;;;;4990309;28;20045;-71
2022/06/08 04:40:48;;;;;;;40.88;33.05;;;12.10;99.90;;;;;;5003837;28;20414;-71
2022/06/08 04:43:15;;;;;;;41.78;34.35;;;12.20;99.90;;;;;;5006654;28;20100;-72
2022/06/08 04:45:42;;;;;;;46.15;37.60;;;12.30;99.90;;;;;;5018225;28;20096;-72
2022/06/08 04:48:08;;;;;;;39.92;34.50;;;12.30;99.90;;;;;;4986535;28;20049;-71
2022/06/08 04:50:34;;;;;;;39.15;34.05;;;12.40;99.90;;;;;;5022163;28;20125;-71
2022/06/08 04:53:01;;;;;;;38.70;33.85;;;12.40;99.90;;;;;;4989549;28;20409;-71
2022/06/08 04:55:27;;;;;;;41.78;35.28;;;12.50;99.90;;;;;;5001515;28;20042;-72
2022/06/08 04:57:53;;;;;;;40.35;34.28;;;12.50;99.90;;;;;;5009245;28;20053;-72
2022/06/08 05:00:21;;;;;;;40.58;35.72;;;12.60;99.90;;;;;;5037255;28;20133;-71
2022/06/08 05:02:49;;;;;;;48.53;38.08;;;12.60;99.90;;;;;;5003137;28;20050;-72
2022/06/08 05:05:20;;;;;;;39.50;34.58;;;12.60;99.90;;;;;;5009398;28;20509;-72
2022/06/08 05:07:46;;;;;;;41.88;34.92;;;12.70;99.90;;;;;;4983565;28;20046;-72
2022/06/08 05:10:13;;;;;;;42.60;35.92;;;12.70;99.90;;;;;;5016607;28;20038;-72
2022/06/08 05:12:40;;;;;;;43.60;36.75;;;12.80;99.90;;;;;;4991277;28;20053;-72
2022/06/08 05:15:10;;;;;;;42.15;34.85;;;12.80;99.90;;;;;;5014412;28;20061;-72
2022/06/08 05:17:36;;;;;;;40.42;35.08;;;12.90;99.90;;;;;;5000714;28;20142;-72
2022/06/08 05:20:04;;;;;;;42.53;35.95;;;12.90;99.90;;;;;;4967100;28;20148;-72
2022/06/08 05:22:30;;;;;;;44.20;38.03;;;13.00;99.90;;;;;;5001657;28;20038;-72
2022/06/08 05:24:56;;;;;;;41.50;35.72;;;13.00;99.90;;;;;;4984625;28;20054;-72
2022/06/08 05:27:21;;;;;;;42.65;35.65;;;13.10;99.90;;;;;;4998480;28;20049;-72
2022/06/08 05:29:47;;;;;;;41.63;34.88;;;13.10;99.90;;;;;;4978823;28;20516;-72
2022/06/08 05:32:16;;;;;;;37.28;33.10;;;13.20;99.90;;;;;;5018493;28;20045;-72
2022/06/08 05:34:41;;;;;;;44.53;38.47;;;13.20;99.90;;;;;;4998610;28;20625;-72
2022/06/08 05:37:07;;;;;;;42.63;34.17;;;13.30;99.90;;;;;;5032814;28;20072;-73
2022/06/08 05:39:33;;;;;;;38.72;34.60;;;13.40;99.90;;;;;;4999076;28;20748;-72
2022/06/08 05:41:59;;;;;;;39.70;33.47;;;13.40;99.90;;;;;;5005634;28;20396;-72
2022/06/08 05:44:24;;;;;;;40.00;34.90;;;13.50;99.90;;;;;;5009265;28;20512;-72
2022/06/08 05:46:51;;;;;;;40.40;34.17;;;13.60;99.90;;;;;;4980319;28;20045;-72
2022/06/08 05:49:17;;;;;;;37.95;33.72;;;13.60;99.90;;;;;;4983880;28;20053;-72
2022/06/08 05:51:44;;;;;;;38.15;34.08;;;13.70;99.90;;;;;;4995633;28;20083;-72
2022/06/08 05:54:11;;;;;;;40.90;35.25;;;13.70;99.90;;;;;;5029466;28;20037;-72
2022/06/08 05:56:37;;;;;;;34.55;30.95;;;13.80;99.90;;;;;;4984239;28;20044;-72
2022/06/08 05:59:04;;;;;;;37.33;33.30;;;13.90;99.90;;;;;;4987355;28;20046;-72
2022/06/08 06:01:31;;;;;;;36.20;32.25;;;14.00;99.90;;;;;;5004136;28;20049;-72
2022/06/08 06:03:59;;;;;;;35.42;31.83;;;14.10;99.90;;;;;;4984882;28;20045;-72
2022/06/08 06:06:25;;;;;;;33.58;30.08;;;14.20;99.90;;;;;;4998386;28;20397;-72
2022/06/08 06:08:51;;;;;;;32.83;29.33;;;14.20;99.90;;;;;;5000524;28;20046;-72
2022/06/08 06:11:17;;;;;;;33.38;29.80;;;14.30;99.90;;;;;;5005115;28;20056;-72
2022/06/08 06:13:46;;;;;;;30.58;27.40;;;14.40;99.90;;;;;;4998727;28;20100;-72
2022/06/08 06:16:12;;;;;;;29.15;26.10;;;14.50;99.90;;;;;;5014480;28;20046;-71
2022/06/08 06:18:38;;;;;;;29.48;26.35;;;14.70;99.90;;;;;;5032933;28;20081;-72
2022/06/08 06:21:04;;;;;;;26.90;24.15;;;14.70;99.90;;;;;;4970350;28;20355;-71
2022/06/08 06:23:30;;;;;;;28.55;24.92;;;14.70;99.90;;;;;;4998937;28;20053;-72
2022/06/08 06:25:56;;;;;;;27.67;24.88;;;14.80;99.90;;;;;;5000906;28;20045;-72
2022/06/08 06:28:22;;;;;;;27.45;24.75;;;14.80;99.90;;;;;;4981985;28;20038;-72
2022/06/08 06:30:48;;;;;;;27.80;24.90;;;14.80;99.90;;;;;;5019302;28;20524;-73
2022/06/08 06:33:15;;;;;;;24.88;22.15;;;14.90;99.90;;;;;;4986069;28;20058;-73
2022/06/08 06:35:42;;;;;;;25.50;22.73;;;15.00;99.90;;;;;;4991361;28;20068;-73
2022/06/08 06:38:09;;;;;;;24.42;22.00;;;15.20;99.90;;;;;;4986008;28;20057;-73
2022/06/08 06:40:36;;;;;;;24.15;21.52;;;15.30;99.90;;;;;;4971461;28;20144;-73
2022/06/08 06:43:04;;;;;;;24.33;21.85;;;15.50;99.90;;;;;;5001699;28;20054;-73
2022/06/08 06:45:31;;;;;;;21.58;19.15;;;15.60;99.90;;;;;;4992318;28;20044;-73
2022/06/08 06:47:58;;;;;;;21.83;19.63;;;15.80;99.90;;;;;;5001723;28;20045;-73
2022/06/08 06:50:25;;;;;;;21.30;19.00;;;15.90;99.90;;;;;;5000126;28;20087;-73
2022/06/08 06:52:51;;;;;;;18.98;16.98;;;16.00;99.90;;;;;;5014267;28;20100;-72
2022/06/08 06:55:25;;;;;;;19.10;17.20;;;16.10;99.90;;;;;;4988444;28;20089;-73
2022/06/08 06:57:51;;;;;;;19.45;17.35;;;16.30;99.90;;;;;;5000812;28;20510;-73
2022/06/08 07:00:17;;;;;;;18.63;16.17;;;16.40;99.90;;;;;;5003493;28;20116;-73
2022/06/08 07:02:44;;;;;;;17.30;15.55;;;16.60;99.90;;;;;;4999015;28;20630;-74
2022/06/08 07:05:26;;;;;;;17.08;15.15;;;16.70;99.90;;;;;;5010929;28;20088;-74
2022/06/08 07:07:52;;;;;;;16.98;15.23;;;16.80;99.90;;;;;;5011801;28;20042;-73
2022/06/08 07:10:19;;;;;;;15.90;14.15;;;16.90;99.90;;;;;;4984712;28;20048;-73
2022/06/08 07:12:45;;;;;;;14.32;12.93;;;17.00;99.90;;;;;;4984857;28;20361;-73
2022/06/08 07:15:13;;;;;;;14.25;12.75;;;17.10;99.90;;;;;;5033280;28;20088;-74
2022/06/08 07:17:39;;;;;;;12.45;11.25;;;17.20;99.90;;;;;;4990364;28;20081;-73
2022/06/08 07:20:06;;;;;;;13.43;9.70;;;17.30;99.90;;;;;;4984381;28;20469;-73
2022/06/08 07:22:32;;;;;;;12.07;9.52;;;17.50;99.90;;;;;;5002435;28;20042;-74
2022/06/08 07:24:57;;;;;;;10.52;9.40;;;17.50;99.90;;;;;;4998882;28;20149;-73
2022/06/08 07:27:24;;;;;;;10.57;8.57;;;17.60;99.90;;;;;;5009488;28;20053;-73
2022/06/08 07:29:51;;;;;;;9.90;8.45;;;17.60;99.90;;;;;;4985433;28;20058;-73
2022/06/08 07:32:17;;;;;;;10.27;8.52;;;17.60;99.90;;;;;;4988209;28;20232;-73
2022/06/08 07:34:46;;;;;;;10.57;8.57;;;17.60;99.90;;;;;;4986023;28;20516;-73
2022/06/08 07:37:12;;;;;;;9.38;6.80;;;17.60;99.90;;;;;;4984808;28;20515;-74
2022/06/08 07:39:38;;;;;;;10.15;7.97;;;17.60;99.90;;;;;;4999458;28;20045;-73
2022/06/08 07:42:04;;;;;;;9.88;8.13;;;17.60;99.90;;;;;;4987312;28;20069;-73
2022/06/08 07:44:30;;;;;;;9.48;7.63;;;17.60;99.90;;;;;;4999121;28;20100;-73
2022/06/08 07:46:57;;;;;;;7.88;6.13;;;17.60;99.90;;;;;;5003296;28;20046;-73
2022/06/08 07:49:41;;;;;;;7.35;6.18;;;17.60;99.90;;;;;;4991839;28;20597;-73
2022/06/08 07:52:21;;;;;;;7.68;5.93;;;17.60;99.90;;;;;;5020062;28;20507;-74
2022/06/08 07:54:48;;;;;;;6.13;5.20;;;17.80;99.90;;;;;;5011104;28;20038;-74
2022/06/08 07:57:25;;;;;;;5.93;4.68;;;18.00;99.90;;;;;;5011648;28;20052;-73
2022/06/08 07:59:52;;;;;;;6.70;4.38;;;18.10;99.90;;;;;;5004198;28;20382;-73
2022/06/08 08:02:17;;;;;;;4.75;3.80;;;18.20;99.90;;;;;;4975134;28;20078;-73
2022/06/08 08:04:44;;;;;;;6.10;3.85;;;18.20;99.90;;;;;;5002195;28;20101;-73
2022/06/08 08:07:11;;;;;;;5.30;3.92;;;18.20;99.90;;;;;;4990473;28;20493;-74
2022/06/08 08:09:37;;;;;;;5.75;3.60;;;18.30;99.90;;;;;;4999891;28;20084;-73
2022/06/08 08:12:04;;;;;;;5.88;4.00;;;18.30;99.90;;;;;;5010744;28;20045;-74
2022/06/08 08:14:33;;;;;;;6.55;3.60;;;18.30;99.90;;;;;;5004099;28;20046;-73
2022/06/08 08:17:00;;;;;;;5.97;3.70;;;18.40;99.90;;;;;;4995373;28;20467;-73
2022/06/08 08:19:25;;;;;;;6.47;3.25;;;18.40;99.90;;;;;;4985781;28;20058;-74
2022/06/08 08:21:52;;;;;;;7.72;4.10;;;18.50;99.90;;;;;;5004679;28;20530;-73
2022/06/08 08:24:19;;;;;;;6.95;3.53;;;18.60;99.90;;;;;;4994542;28;20041;-74
2022/06/08 08:26:48;;;;;;;6.30;3.50;;;18.70;99.90;;;;;;5012867;28;20053;-73
2022/06/08 08:29:14;;;;;;;5.13;3.30;;;18.70;99.90;;;;;;5005682;28;20049;-74
2022/06/08 08:31:41;;;;;;;5.07;3.13;;;18.80;99.90;;;;;;4998356;28;20054;-73
2022/06/08 08:34:08;;;;;;;4.60;3.17;;;18.80;99.90;;;;;;4970613;28;20034;-73
2022/06/08 08:36:34;;;;;;;5.70;2.92;;;19.00;99.90;;;;;;5002302;28;20409;-73
2022/06/08 08:38:59;;;;;;;6.35;3.22;;;19.20;99.90;;;;;;5001989;28;20049;-72
2022/06/08 08:44:32;;;;;;;5.10;3.25;;;19.40;99.90;;;;;;5034935;28;20522;-72
2022/06/08 08:47:35;;;;;;;5.80;4.00;;;19.50;99.90;;;;;;5004334;28;20129;-74
2022/06/08 08:50:20;;;;;;;7.45;3.65;;;19.60;99.90;;;;;;5010398;28;20606;-74
2022/06/08 08:53:07;;;;;;;6.65;3.35;;;19.50;99.90;;;;;;5018265;28;20411;-73
2022/06/08 08:55:38;;;;;;;5.43;4.07;;;19.60;99.90;;;;;;5004116;28;20052;-72
2022/06/08 08:58:07;;;;;;;7.03;3.92;;;19.80;99.90;;;;;;4985725;28;20053;-73
2022/06/08 09:00:49;;;;;;;7.22;4.45;;;20.00;99.90;;;;;;5021958;28;20042;-73
2022/06/08 09:03:32;;;;;;;5.53;4.35;;;20.20;99.90;;;;;;5001790;28;20038;-73
2022/06/08 09:06:07;;;;;;;6.30;4.55;;;20.10;99.90;;;;;;5002693;28;20513;-72
2022/06/08 09:08:33;;;;;;;7.15;4.55;;;20.10;99.90;;;;;;4985916;28;20501;-73
2022/06/08 09:11:01;;;;;;;5.65;3.95;;;20.00;99.90;;;;;;4988284;28;20057;-73
2022/06/08 09:13:57;;;;;;;8.45;5.32;;;20.00;99.90;;;;;;4999549;28;20494;-73
2022/06/08 09:16:38;;;;;;;6.32;4.43;;;19.90;99.90;;;;;;5020411;28;20578;-73
2022/06/08 09:19:24;;;;;;;7.13;5.20;;;19.90;99.90;;;;;;4987352;28;20054;-72
2022/06/08 09:22:04;;;;;;;7.90;4.85;;;19.90;99.90;;;;;;4987266;28;20058;-72
2022/06/08 09:24:36;;;;;;;7.45;4.72;;;19.90;99.90;;;;;;5001886;28;20046;-72
2022/06/08 09:27:26;;;;;;;7.25;4.68;;;20.00;99.90;;;;;;4997921;28;20642;-72
2022/06/08 09:29:54;;;;;;;6.57;4.75;;;20.10;99.90;;;;;;4999637;28;20086;-73
2022/06/08 09:32:37;;;;;;;5.82;4.05;;;20.20;99.90;;;;;;5000058;28;20101;-74
2022/06/08 09:35:16;;;;;;;5.68;3.40;;;20.10;99.90;;;;;;5003831;28;20037;-73
2022/06/08 09:37:43;;;;;;;5.97;3.00;;;20.10;99.90;;;;;;4985148;28;20412;-72
2022/06/08 09:43:14;;;;;;;5.57;3.83;;;20.20;99.90;;;;;;5002772;28;20050;-72
2022/06/08 09:46:08;;;;;;;5.72;3.92;;;20.00;99.90;;;;;;5020915;28;20045;-72
2022/06/08 09:52:24;;;;;;;6.00;4.05;;;20.10;99.90;;;;;;5001511;28;20485;-71
2022/06/08 09:55:04;;;;;;;7.07;4.20;;;20.30;99.90;;;;;;4981819;28;20050;-71
2022/06/08 09:58:01;;;;;;;7.07;5.18;;;20.50;99.90;;;;;;5001985;28;20449;-72
2022/06/08 10:01:08;;;;;;;6.55;4.43;;;20.90;99.90;;;;;;5001098;28;20077;-73
2022/06/08 10:03:58;;;;;;;6.68;4.72;;;21.10;99.90;;;;;;5016416;28;20416;-72
2022/06/08 10:07:22;;;;;;;8.48;4.40;;;21.10;99.90;;;;;;4998706;28;20200;-73
2022/06/08 10:09:51;;;;;;;6.78;4.30;;;21.30;99.90;;;;;;4980035;28;20038;-72
2022/06/08 10:12:31;;;;;;;7.32;4.63;;;21.40;99.90;;;;;;4987626;28;20083;-71
2022/06/08 10:15:04;;;;;;;8.80;4.70;;;21.30;99.90;;;;;;4974123;28;20058;-72
2022/06/08 10:17:49;;;;;;;4.75;3.80;;;21.40;99.90;;;;;;5002827;28;20116;-73
2022/06/08 10:20:24;;;;;;;6.03;3.80;;;21.50;99.90;;;;;;5024595;28;20077;-72
2022/06/08 10:22:56;;;;;;;6.40;3.83;;;21.70;99.90;;;;;;5000402;28;20046;-72
2022/06/08 10:25:26;;;;;;;5.38;3.30;;;21.70;99.90;;;;;;5003712;28;20044;-73
2022/06/08 10:27:59;;;;;;;6.43;3.03;;;21.70;99.90;;;;;;4986092;28;20497;-73
2022/06/08 10:30:41;;;;;;;6.32;3.10;;;21.70;99.90;;;;;;5004628;28;20057;-72
2022/06/08 10:33:32;;;;;;;7.20;3.45;;;21.60;99.90;;;;;;5017848;28;20045;-72
2022/06/08 10:35:59;;;;;;;5.47;2.72;;;21.40;99.90;;;;;;5003736;28;20049;-73
2022/06/08 10:38:32;;;;;;;4.68;3.47;;;21.20;99.90;;;;;;5031230;28;20501;-73
2022/06/08 10:42:38;;;;;;;5.97;2.70;;;21.20;99.90;;;;;;4988272;28;20112;-73
2022/06/08 10:43:50;;;;;;;5.45;2.65;;;21.20;99.90;;;;;;5000002;28;20077;-73
2022/06/08 10:46:45;;;;;;;5.95;3.00;;;21.30;99.90;;;;;;5004474;28;20053;-72
2022/06/08 10:49:30;;;;;;;4.65;3.33;;;21.60;99.90;;;;;;5021139;28;20054;-73
2022/06/08 10:52:17;;;;;;;5.68;3.60;;;21.80;99.90;;;;;;5012294;28;20038;-72
2022/06/08 10:55:04;;;;;;;5.53;3.65;;;21.80;99.90;;;;;;5014873;28;20188;-72
2022/06/08 10:57:36;;;;;;;7.10;3.80;;;21.80;99.90;;;;;;4999420;28;20056;-72
2022/06/08 11:00:24;;;;;;;5.63;3.83;;;21.70;99.90;;;;;;5001076;28;20172;-72
2022/06/08 11:03:04;;;;;;;7.18;4.00;;;21.70;99.90;;;;;;4988035;28;20061;-73
2022/06/08 11:05:34;;;;;;;6.60;3.70;;;21.80;99.90;;;;;;4999220;28;20050;-73
2022/06/08 11:08:12;;;;;;;7.97;4.10;;;21.80;99.90;;;;;;5008637;28;20731;-72
2022/06/08 11:10:44;;;;;;;7.75;4.82;;;21.80;99.90;;;;;;5004672;28;20120;-72
2022/06/08 11:13:23;;;;;;;7.25;4.65;;;21.90;99.90;;;;;;4998195;28;20052;-72
2022/06/08 11:15:55;;;;;;;7.55;4.90;;;21.80;99.90;;;;;;5019584;28;20081;-72
2022/06/08 11:18:24;;;;;;;7.63;5.05;;;21.70;99.90;;;;;;4997406;28;20485;-72
2022/06/08 11:21:14;;;;;;;8.82;4.97;;;21.50;99.90;;;;;;5016794;28;20108;-72
2022/06/08 11:23:55;;;;;;;5.70;4.60;;;21.20;99.90;;;;;;5041729;28;20042;-72
2022/06/08 11:26:23;;;;;;;6.30;4.45;;;21.00;99.90;;;;;;5015754;28;20045;-72
2022/06/08 11:28:57;;;;;;;7.78;5.47;;;20.90;99.90;;;;;;4985339;28;20041;-72
2022/06/08 11:31:26;;;;;;;7.05;5.35;;;20.80;99.90;;;;;;5010002;28;20408;-72
2022/06/08 11:34:16;;;;;;;7.83;5.30;;;20.70;99.90;;;;;;4988296;28;20497;-72
2022/06/08 11:37:07;;;;;;;9.35;4.40;;;20.70;99.90;;;;;;5022230;28;20571;-73
2022/06/08 11:39:51;;;;;;;8.15;4.68;;;20.70;99.90;;;;;;5036150;28;20060;-73
2022/06/08 11:42:37;;;;;;;7.57;4.10;;;20.60;99.90;;;;;;5006714;28;20456;-72
2022/06/08 11:45:14;;;;;;;5.50;3.50;;;20.60;99.90;;;;;;5014507;28;20049;-72
2022/06/08 11:47:50;;;;;;;7.15;4.07;;;20.60;99.90;;;;;;5020038;28;20187;-72
2022/06/08 11:50:20;;;;;;;6.45;3.95;;;20.50;99.90;;;;;;5008114;28;20095;-72
2022/06/08 11:52:55;;;;;;;6.15;3.80;;;20.40;99.90;;;;;;5003483;28;20133;-73
2022/06/08 11:55:26;;;;;;;4.78;2.72;;;20.30;99.90;;;;;;4987325;28;20109;-73
2022/06/08 11:57:57;;;;;;;8.18;1.60;;;20.30;99.90;;;;;;5006021;28;20041;-73
2022/06/08 12:00:51;;;;;;;9.10;1.80;;;20.00;99.90;;;;;;5002824;28;20058;-72
2022/06/08 12:03:16;;;;;;;4.25;1.45;;;19.50;99.90;;;;;;5041561;28;20111;-72
2022/06/08 12:05:50;;;;;;;7.13;1.98;;;18.80;99.90;;;;;;5005416;28;20496;-73
2022/06/08 12:08:25;;;;;;;9.05;1.90;;;18.30;99.90;;;;;;5010458;28;20046;-72
2022/06/08 12:10:51;;;;;;;9.13;2.20;;;17.90;99.90;;;;;;5018682;28;20575;-72
2022/06/08 12:13:21;;;;;;;6.15;2.10;;;17.60;99.90;;;;;;5008518;28;20125;-72
2022/06/08 12:15:57;;;;;;;9.15;2.67;;;17.30;99.90;;;;;;5003786;28;20132;-72
2022/06/08 12:18:39;;;;;;;7.15;2.33;;;17.10;99.90;;;;;;5036368;28;20048;-74
2022/06/08 12:21:07;;;;;;;4.97;2.40;;;17.00;99.90;;;;;;5003522;28;20042;-72
2022/06/08 12:24:01;;;;;;;6.28;2.17;;;17.00;99.90;;;;;;4990798;28;20044;-72
2022/06/08 12:26:56;;;;;;;6.25;2.15;;;16.90;99.90;;;;;;5001424;28;20046;-72
2022/06/08 12:29:39;;;;;;;6.50;2.40;;;16.80;99.90;;;;;;4984328;28;20069;-72
2022/06/08 12:32:16;;;;;;;8.95;2.75;;;16.70;99.90;;;;;;5003466;28;20481;-73
2022/06/08 12:35:13;;;;;;;6.53;2.80;;;16.60;99.90;;;;;;4988249;28;20050;-71
2022/06/08 12:37:44;;;;;;;10.00;3.15;;;16.60;99.90;;;;;;5023728;28;20421;-71
2022/06/08 12:40:16;;;;;;;7.47;3.20;;;16.50;99.90;;;;;;5039487;28;20100;-71
2022/06/08 12:43:10;;;;;;;5.93;2.85;;;16.50;99.90;;;;;;4998805;28;20192;-71
2022/06/08 12:45:45;;;;;;;5.65;2.47;;;16.40;99.90;;;;;;5006424;28;20452;-72
2022/06/08 12:48:39;;;;;;;5.10;2.95;;;16.40;99.90;;;;;;5001302;28;20165;-72
2022/06/08 12:51:22;;;;;;;6.50;2.97;;;16.50;99.90;;;;;;5032225;28;20819;-73
2022/06/08 12:53:48;;;;;;;6.70;2.88;;;16.50;99.90;;;;;;5035905;28;20054;-73
2022/06/08 12:56:19;;;;;;;8.13;3.00;;;16.50;99.90;;;;;;4991530;28;20124;-73
2022/06/08 12:58:46;;;;;;;8.00;3.80;;;16.50;99.90;;;;;;5003812;28;20369;-73
2022/06/08 13:01:16;;;;;;;5.72;4.05;;;16.60;99.90;;;;;;4975147;28;20038;-73
2022/06/08 13:03:43;;;;;;;9.60;4.82;;;16.60;99.90;;;;;;5004884;28;20504;-73
2022/06/08 13:06:10;;;;;;;7.65;5.28;;;16.60;99.90;;;;;;4971603;28;20038;-74
2022/06/08 13:08:37;;;;;;;9.32;6.32;;;16.70;99.90;;;;;;5003791;28;20049;-73
2022/06/08 13:11:06;;;;;;;10.50;7.47;;;16.80;99.90;;;;;;4982198;28;20384;-74
2022/06/08 13:13:36;;;;;;;10.35;7.75;;;16.80;99.90;;;;;;5007323;28;20144;-73
2022/06/08 13:16:11;;;;;;;15.60;9.53;;;16.90;99.90;;;;;;5007748;28;20084;-73
2022/06/08 13:18:38;;;;;;;11.30;8.80;;;17.10;99.90;;;;;;5019482;28;20296;-72